Time;durP1;ratioP1;P1;durP2;ratioP2;P2;SDS_P1;SDS_P2;PMS_P1;PMS_P2;Temp;Humidity;BMP_temperature;BMP_pressure;BME280_temperature;BME280_humidity;BME280_pressure;Samples;Min_cycle;Max_cycle;Signal;HPM_P1;HPM_P2
2022/09/10 00:00:58;;;;;;;11.63;2.67;;;16.60;99.90;;;;;;5061647;28;20032;-76
2022/09/10 00:03:24;;;;;;;7.70;3.22;;;16.60;99.90;;;;;;5060859;28;20021;-76
2022/09/10 00:05:50;;;;;;;13.18;2.92;;;16.60;99.90;;;;;;5065690;28;20036;-76
2022/09/10 00:08:17;;;;;;;12.68;4.22;;;16.60;99.90;;;;;;5062616;28;20074;-75
2022/09/10 00:10:46;;;;;;;11.10;3.92;;;16.70;99.90;;;;;;5068040;28;20028;-76
2022/09/10 00:13:14;;;;;;;6.43;2.30;;;16.70;99.90;;;;;;5065178;28;20064;-76
2022/09/10 00:15:50;;;;;;;5.43;2.80;;;16.70;99.90;;;;;;5071406;28;20048;-75
2022/09/10 00:18:19;;;;;;;3.78;2.25;;;16.80;99.90;;;;;;5067431;28;20025;-76
2022/09/10 00:20:53;;;;;;;9.32;2.55;;;16.80;99.90;;;;;;5074348;28;20098;-76
2022/09/10 00:23:23;;;;;;;6.22;2.40;;;16.80;99.90;;;;;;5070316;28;20021;-76
2022/09/10 00:25:51;;;;;;;5.95;2.47;;;16.80;99.90;;;;;;5074139;28;20039;-76
2022/09/10 00:28:17;;;;;;;5.25;2.30;;;16.70;99.90;;;;;;5076249;28;20032;-75
2022/09/10 00:30:45;;;;;;;5.85;2.22;;;16.60;99.90;;;;;;5061851;28;20481;-75
2022/09/10 00:33:12;;;;;;;7.80;3.03;;;16.60;99.90;;;;;;5065673;28;20017;-76
2022/09/10 00:35:39;;;;;;;11.95;3.40;;;16.60;99.90;;;;;;5063479;28;20052;-76
2022/09/10 00:38:05;;;;;;;5.43;2.30;;;16.60;99.90;;;;;;5066053;28;20027;-76
2022/09/10 00:40:31;;;;;;;7.47;2.25;;;16.60;99.90;;;;;;5068886;28;20043;-75
2022/09/10 00:42:58;;;;;;;10.30;2.72;;;16.50;99.90;;;;;;5067781;28;20021;-76
2022/09/10 00:45:28;;;;;;;4.15;2.45;;;16.50;99.90;;;;;;5072556;28;20477;-77
2022/09/10 00:48:01;;;;;;;6.85;2.40;;;16.40;99.90;;;;;;5071656;28;20017;-76
2022/09/10 00:50:30;;;;;;;6.93;2.33;;;16.40;99.90;;;;;;5073837;28;20552;-75
2022/09/10 00:53:00;;;;;;;9.48;2.72;;;16.30;99.90;;;;;;5074538;28;20017;-75
2022/09/10 00:55:27;;;;;;;13.80;3.17;;;16.30;99.90;;;;;;5075093;28;20025;-76
2022/09/10 00:57:57;;;;;;;8.05;2.30;;;16.30;99.90;;;;;;5076032;28;20024;-75
2022/09/10 01:00:23;;;;;;;8.52;2.97;;;16.30;99.90;;;;;;5066599;28;20032;-75
2022/09/10 01:02:50;;;;;;;5.13;2.78;;;16.30;99.90;;;;;;5065904;28;20021;-75
2022/09/10 01:05:17;;;;;;;6.78;2.17;;;16.40;99.90;;;;;;5072885;28;20025;-76
2022/09/10 01:07:43;;;;;;;8.20;2.72;;;16.40;99.90;;;;;;5079059;28;20423;-76
2022/09/10 01:10:38;;;;;;;8.35;2.60;;;16.30;99.90;;;;;;5063643;28;20032;-76
2022/09/10 01:13:20;;;;;;;10.35;3.03;;;16.30;99.90;;;;;;5057555;28;20020;-76
2022/09/10 01:15:58;;;;;;;4.82;2.35;;;16.30;99.90;;;;;;5058706;28;20021;-75
2022/09/10 01:18:42;;;;;;;9.70;2.30;;;16.20;99.90;;;;;;5062524;28;20021;-76
2022/09/10 01:21:38;;;;;;;3.70;2.20;;;16.20;99.90;;;;;;5062559;28;20029;-75
2022/09/10 01:24:36;;;;;;;13.05;2.85;;;16.10;99.90;;;;;;5063744;28;20029;-75
2022/09/10 01:27:30;;;;;;;11.90;2.67;;;15.90;99.90;;;;;;5092645;28;20493;-75
2022/09/10 01:30:36;;;;;;;11.27;3.28;;;15.90;99.90;;;;;;5067460;28;21325;-75
2022/09/10 01:33:15;;;;;;;8.98;2.90;;;15.80;99.90;;;;;;5068263;28;20023;-75
2022/09/10 01:35:43;;;;;;;5.82;2.42;;;15.70;99.90;;;;;;5073151;28;20469;-75
2022/09/10 01:38:18;;;;;;;10.60;2.97;;;15.60;99.90;;;;;;5072481;28;21154;-75
2022/09/10 01:40:45;;;;;;;7.28;2.65;;;15.60;99.90;;;;;;5075977;28;20116;-75
2022/09/10 01:43:12;;;;;;;7.40;2.97;;;15.50;99.90;;;;;;5079138;28;20059;-75
2022/09/10 01:46:07;;;;;;;6.03;3.25;;;15.50;99.90;;;;;;5080040;28;20435;-75
2022/09/10 01:48:54;;;;;;;4.40;2.72;;;15.40;99.90;;;;;;5059317;28;20052;-75
2022/09/10 01:51:33;;;;;;;6.22;3.38;;;15.40;99.90;;;;;;5063140;28;20013;-75
2022/09/10 01:54:24;;;;;;;10.80;3.30;;;15.30;99.90;;;;;;5063134;28;20048;-75
2022/09/10 01:57:11;;;;;;;6.50;2.88;;;15.20;99.90;;;;;;5072063;28;20025;-75
2022/09/10 02:00:11;;;;;;;6.05;2.92;;;15.20;99.90;;;;;;5074081;28;20120;-75
2022/09/10 02:02:40;;;;;;;4.00;2.55;;;15.20;99.90;;;;;;5071554;28;20526;-74
2022/09/10 02:05:08;;;;;;;9.20;3.60;;;15.20;99.90;;;;;;5067469;28;20067;-75
2022/09/10 02:07:35;;;;;;;5.00;3.30;;;15.20;99.90;;;;;;5074115;28;20404;-75
2022/09/10 02:10:04;;;;;;;7.30;3.13;;;15.20;99.90;;;;;;5072316;28;20017;-75
2022/09/10 02:12:30;;;;;;;9.45;3.00;;;15.30;99.90;;;;;;5076791;28;20024;-75
2022/09/10 02:14:57;;;;;;;7.18;3.13;;;15.30;99.90;;;;;;5075757;28;20049;-75
2022/09/10 02:17:29;;;;;;;10.10;3.45;;;15.30;99.90;;;;;;5077630;28;20035;-75
2022/09/10 02:19:57;;;;;;;6.35;3.22;;;15.30;99.90;;;;;;5078770;28;20484;-75
2022/09/10 02:22:23;;;;;;;6.40;2.83;;;15.30;99.90;;;;;;5059370;28;20033;-75
2022/09/10 02:24:50;;;;;;;11.38;2.90;;;15.30;99.90;;;;;;5073181;28;20077;-75
2022/09/10 02:27:16;;;;;;;7.43;3.13;;;15.30;99.90;;;;;;5063329;28;20025;-75
2022/09/10 02:29:42;;;;;;;12.13;3.38;;;15.30;99.90;;;;;;5065330;28;20025;-75
2022/09/10 02:32:08;;;;;;;6.55;2.83;;;15.30;99.90;;;;;;5069318;28;20025;-75
2022/09/10 02:34:35;;;;;;;6.35;2.80;;;15.20;99.90;;;;;;5072398;28;20025;-76
2022/09/10 02:37:02;;;;;;;5.63;3.13;;;15.10;99.90;;;;;;5071536;28;20531;-75
2022/09/10 02:39:29;;;;;;;8.95;3.58;;;15.10;99.90;;;;;;5069992;28;20093;-75
2022/09/10 02:41:57;;;;;;;10.63;3.83;;;15.00;99.90;;;;;;5074128;28;20031;-75
2022/09/10 02:44:23;;;;;;;15.63;4.63;;;15.00;99.90;;;;;;5071422;28;20029;-75
2022/09/10 02:46:50;;;;;;;10.68;3.35;;;14.90;99.90;;;;;;5075800;28;20074;-75
2022/09/10 02:49:16;;;;;;;7.82;2.90;;;14.90;99.90;;;;;;5075248;28;20040;-76
2022/09/10 02:51:43;;;;;;;11.25;3.63;;;14.90;99.90;;;;;;5078875;28;20013;-76
2022/09/10 02:54:09;;;;;;;10.02;2.90;;;14.90;99.90;;;;;;5063130;28;20028;-75
2022/09/10 02:56:35;;;;;;;8.50;3.13;;;14.90;99.90;;;;;;5060893;28;20025;-75
2022/09/10 02:59:01;;;;;;;14.68;3.90;;;14.90;99.90;;;;;;5063602;28;20024;-75
2022/09/10 03:01:27;;;;;;;7.78;3.40;;;14.90;99.90;;;;;;5062555;28;20025;-75
2022/09/10 03:03:55;;;;;;;13.48;3.60;;;14.90;99.90;;;;;;5064204;28;20029;-75
2022/09/10 03:06:23;;;;;;;16.00;3.63;;;14.90;99.90;;;;;;5064000;28;20093;-75
2022/09/10 03:08:49;;;;;;;8.00;2.95;;;14.80;99.90;;;;;;5067212;28;20048;-75
2022/09/10 03:11:15;;;;;;;9.85;3.03;;;14.80;99.90;;;;;;5069504;28;20017;-75
2022/09/10 03:13:44;;;;;;;7.85;3.13;;;14.70;99.90;;;;;;5068978;28;20543;-75
2022/09/10 03:16:14;;;;;;;5.85;3.08;;;14.70;99.90;;;;;;5071533;28;20031;-75
2022/09/10 03:18:41;;;;;;;9.43;3.55;;;14.60;99.90;;;;;;5071220;28;20599;-75
2022/09/10 03:21:13;;;;;;;11.75;3.78;;;14.60;99.90;;;;;;5076244;28;20081;-74
2022/09/10 03:23:40;;;;;;;8.30;2.92;;;14.60;99.90;;;;;;5077043;28;20025;-75
2022/09/10 03:26:08;;;;;;;6.15;3.10;;;14.50;99.90;;;;;;5077989;28;20028;-75
2022/09/10 03:28:36;;;;;;;8.90;3.50;;;14.50;99.90;;;;;;5072028;28;20021;-75
2022/09/10 03:31:03;;;;;;;8.93;3.50;;;14.50;99.90;;;;;;5058343;28;20021;-75
2022/09/10 03:33:28;;;;;;;6.70;3.10;;;14.40;99.90;;;;;;5073541;28;20072;-75
2022/09/10 03:35:54;;;;;;;7.97;3.20;;;14.40;99.90;;;;;;5065914;28;20551;-75
2022/09/10 03:38:22;;;;;;;7.43;3.47;;;14.40;99.90;;;;;;5071512;28;20396;-75
2022/09/10 03:40:48;;;;;;;7.32;3.08;;;14.30;99.90;;;;;;5069713;28;20051;-75
2022/09/10 03:43:14;;;;;;;5.90;3.25;;;14.20;99.90;;;;;;5074110;28;20082;-75
2022/09/10 03:45:40;;;;;;;7.95;3.22;;;14.20;99.90;;;;;;5072386;28;20020;-75
2022/09/10 03:48:06;;;;;;;4.80;3.38;;;14.20;99.90;;;;;;5075073;28;20081;-75
2022/09/10 03:50:32;;;;;;;8.02;3.58;;;14.20;99.90;;;;;;5077508;28;20099;-75
2022/09/10 03:52:57;;;;;;;8.13;3.67;;;14.10;99.90;;;;;;5070284;28;20381;-75
2022/09/10 03:55:23;;;;;;;7.47;3.53;;;14.10;99.90;;;;;;5058166;28;20013;-75
2022/09/10 03:57:49;;;;;;;6.25;3.53;;;14.10;99.90;;;;;;5075887;28;20388;-75
2022/09/10 04:00:15;;;;;;;5.20;3.13;;;14.00;99.90;;;;;;5068469;28;20100;-75
2022/09/10 04:02:42;;;;;;;8.10;3.20;;;14.00;99.90;;;;;;5064462;28;20043;-75
2022/09/10 04:05:08;;;;;;;9.85;3.88;;;14.00;99.90;;;;;;5062862;28;20017;-75
2022/09/10 04:07:35;;;;;;;9.25;4.10;;;14.00;99.90;;;;;;5069942;28;20485;-75
2022/09/10 04:10:02;;;;;;;9.40;3.63;;;14.00;99.90;;;;;;5063982;28;20021;-75
2022/09/10 04:12:28;;;;;;;10.75;3.92;;;13.90;99.90;;;;;;5072691;28;20017;-75
2022/09/10 04:14:54;;;;;;;4.45;3.40;;;13.90;99.90;;;;;;5068547;28;20013;-75
2022/09/10 04:17:20;;;;;;;6.30;3.60;;;13.90;99.90;;;;;;5074221;28;20031;-75
2022/09/10 04:19:46;;;;;;;9.23;3.60;;;13.80;99.90;;;;;;5070481;28;20020;-75
2022/09/10 04:22:11;;;;;;;8.70;4.35;;;13.80;99.90;;;;;;5073661;28;20035;-75
2022/09/10 04:24:37;;;;;;;6.68;3.50;;;13.80;99.90;;;;;;5075519;28;20021;-75
2022/09/10 04:27:03;;;;;;;12.68;3.85;;;13.80;99.90;;;;;;5075072;28;20024;-75
2022/09/10 04:29:30;;;;;;;15.50;4.13;;;13.70;99.90;;;;;;5063192;28;20029;-75
2022/09/10 04:31:57;;;;;;;10.65;3.92;;;13.70;99.90;;;;;;5060348;28;20508;-75
2022/09/10 04:34:23;;;;;;;9.30;4.18;;;13.70;99.90;;;;;;5075063;28;20021;-75
2022/09/10 04:36:48;;;;;;;8.20;4.10;;;13.70;99.90;;;;;;5077002;28;20086;-75
2022/09/10 04:39:15;;;;;;;9.38;4.03;;;13.70;99.90;;;;;;5071496;28;20025;-75
2022/09/10 04:41:41;;;;;;;9.07;4.35;;;13.60;99.90;;;;;;5074882;28;20032;-74
2022/09/10 04:44:07;;;;;;;11.38;4.00;;;13.60;99.90;;;;;;5073094;28;20090;-75
2022/09/10 04:46:33;;;;;;;5.82;3.25;;;13.60;99.90;;;;;;5069549;28;20020;-75
2022/09/10 04:48:59;;;;;;;8.18;3.53;;;13.60;99.90;;;;;;5065428;28;20119;-75
2022/09/10 04:51:25;;;;;;;8.55;4.10;;;13.60;99.90;;;;;;5075200;28;20020;-75
2022/09/10 04:53:51;;;;;;;9.82;4.65;;;13.60;99.90;;;;;;5068375;28;20021;-75
2022/09/10 04:56:18;;;;;;;4.97;3.97;;;13.60;99.90;;;;;;5073807;28;20480;-75
2022/09/10 04:58:45;;;;;;;7.78;4.18;;;13.60;99.90;;;;;;5072925;28;20071;-75
2022/09/10 05:01:10;;;;;;;7.35;4.60;;;13.60;99.90;;;;;;5074745;28;20099;-75
2022/09/10 05:03:36;;;;;;;12.20;4.05;;;13.60;99.90;;;;;;5077085;28;20463;-75
2022/09/10 05:06:04;;;;;;;6.13;3.80;;;13.60;99.90;;;;;;5057442;28;20077;-75
2022/09/10 05:08:30;;;;;;;8.77;3.92;;;13.50;99.90;;;;;;5067249;28;20032;-75
2022/09/10 05:10:56;;;;;;;6.25;4.65;;;13.50;99.90;;;;;;5061801;28;20025;-75
2022/09/10 05:13:23;;;;;;;10.88;4.10;;;13.40;99.90;;;;;;5060265;28;20465;-75
2022/09/10 05:15:49;;;;;;;6.57;4.32;;;13.50;99.90;;;;;;5077777;28;20024;-75
2022/09/10 05:18:15;;;;;;;10.15;4.50;;;13.40;99.90;;;;;;5070044;28;20047;-75
2022/09/10 05:20:44;;;;;;;9.93;4.28;;;13.40;99.90;;;;;;5073438;28;20020;-75
2022/09/10 05:23:09;;;;;;;13.13;4.47;;;13.40;99.90;;;;;;5070571;28;20017;-75
2022/09/10 05:25:36;;;;;;;7.05;4.00;;;13.30;99.90;;;;;;5070095;28;20030;-75
2022/09/10 05:28:04;;;;;;;6.57;4.05;;;13.30;99.90;;;;;;5076789;28;20074;-75
2022/09/10 05:30:31;;;;;;;9.55;4.95;;;13.40;99.90;;;;;;5061383;28;20018;-75
2022/09/10 05:33:01;;;;;;;9.40;4.93;;;13.40;99.90;;;;;;5061916;28;20362;-75
2022/09/10 05:35:29;;;;;;;7.50;4.65;;;13.40;99.90;;;;;;5072618;28;20056;-77
2022/09/10 05:37:59;;;;;;;8.23;4.55;;;13.30;99.90;;;;;;5063309;28;20021;-75
2022/09/10 05:40:27;;;;;;;;;;;13.40;99.90;;;;;;5069582;28;20017;-75
2022/09/10 05:42:53;;;;;;;6.38;4.20;;;13.40;99.90;;;;;;5067915;28;19954;-75
2022/09/10 05:45:20;;;;;;;9.18;5.15;;;13.30;99.90;;;;;;5072335;28;20029;-75
2022/09/10 05:47:46;;;;;;;8.90;4.82;;;13.30;99.90;;;;;;5069622;28;20014;-75
2022/09/10 05:50:13;;;;;;;7.72;4.68;;;13.30;99.90;;;;;;5074097;28;20162;-75
2022/09/10 05:52:39;;;;;;;7.15;4.70;;;13.40;99.90;;;;;;5073627;28;20024;-75
2022/09/10 05:55:05;;;;;;;13.77;5.78;;;13.40;99.90;;;;;;5075454;28;20044;-75
2022/09/10 05:57:32;;;;;;;9.40;5.13;;;13.50;99.90;;;;;;5062383;28;20024;-75
2022/09/10 05:59:58;;;;;;;13.98;7.70;;;13.50;99.90;;;;;;5058891;28;20025;-75
2022/09/10 06:02:25;;;;;;;13.40;6.88;;;13.60;99.90;;;;;;5083943;28;20119;-75
2022/09/10 06:04:51;;;;;;;13.70;5.78;;;13.60;99.90;;;;;;5059061;28;20086;-75
2022/09/10 06:07:16;;;;;;;15.57;6.20;;;13.70;99.90;;;;;;5063435;28;20032;-76
2022/09/10 06:09:42;;;;;;;12.07;7.00;;;13.80;99.90;;;;;;5064208;28;20056;-76
2022/09/10 06:12:08;;;;;;;13.82;6.18;;;13.80;99.90;;;;;;5065704;28;20025;-75
2022/09/10 06:14:34;;;;;;;9.35;5.45;;;13.90;99.90;;;;;;5068111;28;20020;-75
2022/09/10 06:17:00;;;;;;;10.93;6.85;;;14.00;99.90;;;;;;5063603;28;20351;-76
2022/09/10 06:19:26;;;;;;;7.78;5.32;;;14.10;99.90;;;;;;5066805;28;20056;-78
2022/09/10 06:21:52;;;;;;;16.67;5.30;;;14.10;99.90;;;;;;5073752;28;20358;-75
2022/09/10 06:24:23;;;;;;;11.00;4.95;;;14.30;99.90;;;;;;5078158;28;20025;-75
2022/09/10 06:26:49;;;;;;;;;;;14.30;99.90;;;;;;5075532;28;20023;-75
2022/09/10 06:29:17;;;;;;;11.13;5.43;;;14.40;99.90;;;;;;5061204;28;19931;-76
2022/09/10 06:31:44;;;;;;;9.80;5.00;;;14.50;99.90;;;;;;5063163;28;20020;-76
2022/09/10 06:34:10;;;;;;;15.32;5.97;;;14.70;99.90;;;;;;5062104;28;20335;-76
2022/09/10 06:36:36;;;;;;;9.65;4.55;;;14.80;99.90;;;;;;5075835;28;20054;-78
2022/09/10 06:39:02;;;;;;;9.93;5.75;;;14.90;99.90;;;;;;5065133;28;20080;-78
2022/09/10 06:41:29;;;;;;;15.02;6.10;;;15.00;99.90;;;;;;5070589;28;20477;-76
2022/09/10 06:43:56;;;;;;;9.98;5.35;;;15.10;99.90;;;;;;5068193;28;20481;-76
2022/09/10 06:46:22;;;;;;;10.18;5.43;;;15.30;99.90;;;;;;5072321;28;20035;-76
2022/09/10 06:48:48;;;;;;;10.05;4.95;;;15.50;99.90;;;;;;5072433;28;20025;-78
2022/09/10 06:51:15;;;;;;;7.72;4.63;;;15.50;99.90;;;;;;5079345;28;20047;-78
2022/09/10 06:53:42;;;;;;;9.50;4.50;;;15.60;99.90;;;;;;5074328;28;20044;-78
2022/09/10 06:56:12;;;;;;;10.00;4.13;;;15.70;99.90;;;;;;5070212;28;20109;-78
2022/09/10 06:58:38;;;;;;;8.23;4.32;;;15.80;99.90;;;;;;5073415;28;20033;-78
2022/09/10 07:01:13;;;;;;;6.53;4.20;;;15.90;99.90;;;;;;5071523;28;20025;-78
2022/09/10 07:03:39;;;;;;;7.57;3.75;;;16.00;99.90;;;;;;5060606;28;20033;-78
2022/09/10 07:06:12;;;;;;;8.38;3.90;;;16.10;99.90;;;;;;5062511;28;20032;-78
2022/09/10 07:08:38;;;;;;;9.82;4.03;;;16.20;99.90;;;;;;5063136;28;20040;-78
2022/09/10 07:11:11;;;;;;;10.60;3.70;;;16.20;99.90;;;;;;5064131;28;20028;-78
2022/09/10 07:13:37;;;;;;;8.35;4.88;;;16.30;99.90;;;;;;5066749;28;20021;-78
2022/09/10 07:16:03;;;;;;;8.02;4.03;;;16.30;99.90;;;;;;5067059;28;20413;-78
2022/09/10 07:18:29;;;;;;;8.18;4.85;;;16.40;99.90;;;;;;5068390;28;20040;-78
2022/09/10 07:21:16;;;;;;;10.20;3.83;;;16.40;99.90;;;;;;5075715;28;20021;-78
2022/09/10 07:23:43;;;;;;;9.15;3.97;;;16.40;99.90;;;;;;5075039;28;20020;-78
2022/09/10 07:26:14;;;;;;;11.55;3.28;;;16.50;99.90;;;;;;5074653;28;20028;-78
2022/09/10 07:28:41;;;;;;;6.88;3.60;;;16.60;99.90;;;;;;5076707;28;20031;-78
2022/09/10 07:31:12;;;;;;;10.10;3.95;;;16.80;99.90;;;;;;5065177;28;20029;-77
2022/09/10 07:33:38;;;;;;;;;;;16.90;99.90;;;;;;5081127;28;20027;-78
2022/09/10 07:36:05;;;;;;;7.75;3.60;;;17.10;99.90;;;;;;5071526;28;19920;-75
2022/09/10 07:38:31;;;;;;;8.95;3.05;;;17.20;99.90;;;;;;5074661;28;20023;-75
2022/09/10 07:41:00;;;;;;;6.55;3.30;;;17.30;99.90;;;;;;5072841;28;20108;-76
2022/09/10 07:43:26;;;;;;;10.43;3.33;;;17.50;99.90;;;;;;5076759;28;20070;-75
2022/09/10 07:45:52;;;;;;;7.53;2.67;;;17.60;99.90;;;;;;5077093;28;20024;-75
2022/09/10 07:48:17;;;;;;;11.50;3.03;;;17.70;99.90;;;;;;5071018;28;20107;-75
2022/09/10 07:50:44;;;;;;;8.38;2.88;;;17.70;99.90;;;;;;5059588;28;20036;-75
2022/09/10 07:53:10;;;;;;;8.25;3.28;;;17.80;99.90;;;;;;5064450;28;20033;-75
2022/09/10 07:55:36;;;;;;;6.47;3.15;;;17.90;99.90;;;;;;5067147;28;20025;-75
2022/09/10 07:58:02;;;;;;;4.85;2.55;;;18.00;99.90;;;;;;5064667;28;20021;-75
2022/09/10 08:00:28;;;;;;;13.18;2.53;;;18.20;99.90;;;;;;5064622;28;20025;-75
2022/09/10 08:02:54;;;;;;;9.60;2.92;;;18.20;99.90;;;;;;5069705;28;20108;-75
2022/09/10 08:05:20;;;;;;;22.85;4.40;;;18.30;99.90;;;;;;5066680;28;20056;-75
2022/09/10 08:07:46;;;;;;;13.00;3.33;;;18.30;99.90;;;;;;5072715;28;20037;-75
2022/09/10 08:10:12;;;;;;;15.30;3.05;;;18.50;99.90;;;;;;5068432;28;20078;-75
2022/09/10 08:12:39;;;;;;;7.53;2.90;;;18.60;99.90;;;;;;5073716;28;20021;-75
2022/09/10 08:15:07;;;;;;;12.25;2.95;;;18.80;99.90;;;;;;5073800;28;20017;-74
2022/09/10 08:17:35;;;;;;;7.55;2.17;;;18.70;99.90;;;;;;5076911;28;20158;-75
2022/09/10 08:20:03;;;;;;;9.45;2.65;;;18.80;99.90;;;;;;5074666;28;20035;-75
2022/09/10 08:22:30;;;;;;;12.93;3.88;;;18.90;99.90;;;;;;5077709;28;20077;-74
2022/09/10 08:24:57;;;;;;;8.32;2.28;;;19.00;99.90;;;;;;5067865;28;20024;-75
2022/09/10 08:27:23;;;;;;;8.55;2.55;;;19.10;99.90;;;;;;5065509;28;20032;-75
2022/09/10 08:29:49;;;;;;;8.98;2.42;;;19.10;99.90;;;;;;5066393;28;20481;-75
2022/09/10 08:32:15;;;;;;;10.15;2.50;;;19.30;99.90;;;;;;5064692;28;20037;-74
2022/09/10 08:34:41;;;;;;;10.05;2.42;;;19.40;99.90;;;;;;5064677;28;20067;-75
2022/09/10 08:37:07;;;;;;;7.68;2.85;;;19.60;99.90;;;;;;5068104;28;20565;-75
2022/09/10 08:39:33;;;;;;;11.57;2.40;;;19.70;99.90;;;;;;5067156;28;20025;-74
2022/09/10 08:42:08;;;;;;;8.80;3.25;;;19.70;99.90;;;;;;5072409;28;20021;-75
2022/09/10 08:45:18;;;;;;;5.18;2.13;;;19.80;99.90;;;;;;5073606;28;20024;-75
2022/09/10 08:48:12;;;;;;;7.68;2.17;;;19.80;99.90;;;;;;5030083;28;20025;-74
2022/09/10 08:50:56;;;;;;;8.63;2.80;;;19.90;99.90;;;;;;5073024;28;20043;-74
2022/09/10 08:53:36;;;;;;;19.20;3.50;;;19.90;99.90;;;;;;5076908;28;20362;-74
2022/09/10 08:56:12;;;;;;;9.68;2.35;;;19.70;99.90;;;;;;5060451;28;20021;-75
2022/09/10 08:58:43;;;;;;;8.70;2.28;;;19.70;99.90;;;;;;5058920;28;20029;-74
2022/09/10 09:01:22;;;;;;;11.45;2.80;;;19.80;99.90;;;;;;5060396;28;20060;-74
2022/09/10 09:03:51;;;;;;;9.48;2.58;;;19.90;99.90;;;;;;5068907;28;20037;-75
2022/09/10 09:06:37;;;;;;;8.00;2.92;;;20.00;99.90;;;;;;5062279;28;20025;-74
2022/09/10 09:09:03;;;;;;;7.38;2.25;;;20.00;99.90;;;;;;5067367;28;20029;-74
2022/09/10 09:11:29;;;;;;;9.65;2.40;;;20.10;99.90;;;;;;5065081;28;20170;-74
2022/09/10 09:14:13;;;;;;;8.25;2.13;;;20.00;99.90;;;;;;5068293;28;20283;-74
2022/09/10 09:17:05;;;;;;;7.90;2.45;;;20.00;99.90;;;;;;5066551;28;20477;-74
2022/09/10 09:19:49;;;;;;;10.65;2.55;;;20.40;99.90;;;;;;5070564;28;20116;-74
2022/09/10 09:22:41;;;;;;;13.88;3.03;;;20.60;99.90;;;;;;5073870;28;20052;-74
2022/09/10 09:25:26;;;;;;;9.77;2.08;;;20.80;99.90;;;;;;5071635;28;20438;-73
2022/09/10 09:27:57;;;;;;;6.88;2.17;;;20.90;99.90;;;;;;5075876;28;20089;-76
2022/09/10 09:30:48;;;;;;;7.47;2.13;;;21.10;99.90;;;;;;5064680;28;20030;-74
2022/09/10 09:33:19;;;;;;;7.05;1.75;;;21.20;99.90;;;;;;5064026;28;20114;-74
2022/09/10 09:35:59;;;;;;;6.95;2.15;;;21.20;99.90;;;;;;5062915;28;20079;-74
2022/09/10 09:38:32;;;;;;;6.55;2.05;;;21.00;99.90;;;;;;5069178;28;20035;-74
2022/09/10 09:41:06;;;;;;;6.65;1.95;;;20.80;99.90;;;;;;5065353;28;20031;-75
2022/09/10 09:43:51;;;;;;;5.25;1.90;;;20.80;99.90;;;;;;5072659;28;20025;-74
2022/09/10 09:46:19;;;;;;;14.82;2.17;;;20.70;99.90;;;;;;5069255;28;20047;-73
2022/09/10 09:48:46;;;;;;;9.88;2.38;;;20.70;99.90;;;;;;5072615;28;20413;-75
2022/09/10 09:51:20;;;;;;;6.00;1.75;;;20.70;99.90;;;;;;5071250;28;20050;-73
2022/09/10 09:53:48;;;;;;;5.00;1.85;;;20.80;99.90;;;;;;5074797;28;20086;-74
2022/09/10 09:56:24;;;;;;;4.75;1.60;;;20.80;99.90;;;;;;5071994;28;20021;-74
2022/09/10 09:58:51;;;;;;;5.70;1.70;;;20.70;99.90;;;;;;5062208;28;20032;-74
2022/09/10 10:01:22;;;;;;;6.40;1.58;;;20.70;99.90;;;;;;5062411;28;20036;-74
2022/09/10 10:03:53;;;;;;;8.00;1.80;;;20.90;99.90;;;;;;5064724;28;20486;-74
2022/09/10 10:06:23;;;;;;;;;;;21.00;99.90;;;;;;5066819;28;20076;-74
2022/09/10 10:09:18;;;;;;;11.57;1.90;;;21.00;99.90;;;;;;5066388;28;19908;-74
2022/09/10 10:11:54;;;;;;;6.95;1.88;;;21.10;99.90;;;;;;5066660;28;20025;-74
2022/09/10 10:14:21;;;;;;;8.50;1.40;;;21.10;99.90;;;;;;5067716;28;20048;-74
2022/09/10 10:16:53;;;;;;;11.80;1.65;;;21.30;99.90;;;;;;5069609;28;20020;-75
2022/09/10 10:19:39;;;;;;;7.95;1.33;;;21.20;99.90;;;;;;5075941;28;20469;-74
2022/09/10 10:22:15;;;;;;;4.57;1.90;;;21.20;99.90;;;;;;5076779;28;20087;-74
2022/09/10 10:24:42;;;;;;;3.78;1.30;;;21.40;99.90;;;;;;5075915;28;20106;-74
2022/09/10 10:27:29;;;;;;;5.90;1.58;;;21.40;99.90;;;;;;5082185;28;20037;-75
2022/09/10 10:30:00;;;;;;;8.52;1.40;;;21.60;99.90;;;;;;5070031;28;20032;-73
2022/09/10 10:32:43;;;;;;;6.63;1.60;;;21.70;99.90;;;;;;5064260;28;20025;-74
2022/09/10 10:35:22;;;;;;;4.70;1.35;;;21.70;99.90;;;;;;5070095;28;20531;-75
2022/09/10 10:37:55;;;;;;;7.10;1.70;;;21.80;99.90;;;;;;5077358;28;20025;-74
2022/09/10 10:40:37;;;;;;;4.85;1.35;;;21.80;99.90;;;;;;5071901;28;20436;-74
2022/09/10 10:43:41;;;;;;;7.30;1.42;;;21.90;99.90;;;;;;5073276;28;20445;-75
2022/09/10 10:46:39;;;;;;;6.25;1.83;;;21.90;99.90;;;;;;5068399;28;20037;-75
2022/09/10 10:49:39;;;;;;;6.72;1.45;;;21.80;99.90;;;;;;5073039;28;20104;-76
2022/09/10 10:52:12;;;;;;;7.75;1.52;;;21.70;99.90;;;;;;5071984;28;20041;-76
2022/09/10 10:54:47;;;;;;;9.15;1.50;;;21.90;99.90;;;;;;5077290;28;20078;-74
2022/09/10 10:57:34;;;;;;;6.63;1.50;;;21.80;99.90;;;;;;5079346;28;20023;-74
2022/09/10 11:00:05;;;;;;;8.52;1.83;;;22.00;99.90;;;;;;5059346;28;20025;-74
2022/09/10 11:02:38;;;;;;;;;;;22.20;99.90;;;;;;5064125;28;20511;-75
2022/09/10 11:05:19;;;;;;;5.53;1.70;;;22.40;99.90;;;;;;5062684;28;19999;-74
2022/09/10 11:07:46;;;;;;;6.72;1.48;;;22.30;99.90;;;;;;5079037;28;20115;-74
2022/09/10 11:10:30;;;;;;;7.88;1.85;;;22.40;99.90;;;;;;5065917;28;20020;-74
2022/09/10 11:13:24;;;;;;;13.05;2.50;;;22.40;99.90;;;;;;5074208;28;20047;-74
2022/09/10 11:16:13;;;;;;;11.55;1.92;;;22.40;99.90;;;;;;5070562;28;20107;-74
2022/09/10 11:18:55;;;;;;;4.47;2.03;;;22.20;99.90;;;;;;5074756;28;20032;-74
2022/09/10 11:21:39;;;;;;;5.13;1.50;;;22.40;99.90;;;;;;5071548;28;20020;-74
2022/09/10 11:24:11;;;;;;;4.88;1.80;;;22.50;99.90;;;;;;5067253;28;20024;-74
2022/09/10 11:26:45;;;;;;;7.57;1.50;;;22.70;99.90;;;;;;5074956;28;20040;-77
2022/09/10 11:29:40;;;;;;;6.20;1.98;;;22.90;99.90;;;;;;5077416;28;20464;-75
2022/09/10 11:32:09;;;;;;;5.45;1.58;;;23.00;99.90;;;;;;5072048;28;20484;-75
2022/09/10 11:34:56;;;;;;;5.22;2.00;;;23.00;99.90;;;;;;5061847;28;20032;-77
2022/09/10 11:37:52;;;;;;;5.30;1.92;;;23.10;99.90;;;;;;5069140;28;20021;-75
2022/09/10 11:40:39;;;;;;;5.50;1.20;;;23.20;99.90;;;;;;5075706;28;20021;-74
2022/09/10 11:43:32;;;;;;;6.70;1.50;;;23.30;99.90;;;;;;5070148;28;20105;-75
2022/09/10 11:46:05;;;;;;;6.43;1.40;;;23.40;99.90;;;;;;5072504;28;20381;-74
2022/09/10 11:49:02;;;;;;;4.50;1.50;;;23.30;99.90;;;;;;5070553;28;20040;-75
2022/09/10 11:51:38;;;;;;;21.38;1.52;;;23.40;99.90;;;;;;5067123;28;20028;-75
2022/09/10 11:54:12;;;;;;;4.03;1.60;;;23.40;99.90;;;;;;5070337;28;20048;-75
2022/09/10 11:56:38;;;;;;;6.18;1.45;;;23.40;99.60;;;;;;5074802;28;20025;-75
2022/09/10 11:59:07;;;;;;;3.17;1.35;;;23.40;99.50;;;;;;5074021;28;20021;-75
2022/09/10 12:01:54;;;;;;;4.88;2.13;;;23.40;99.90;;;;;;5076463;28;20028;-74
2022/09/10 12:05:02;;;;;;;8.07;1.58;;;23.50;99.90;;;;;;5058436;28;20029;-74
2022/09/10 12:07:28;;;;;;;6.50;1.35;;;23.70;99.90;;;;;;5056371;28;20029;-75
2022/09/10 12:10:09;;;;;;;5.43;1.42;;;23.90;99.90;;;;;;5059353;28;20163;-74
2022/09/10 12:12:37;;;;;;;;;;;23.90;98.60;;;;;;5073979;28;20021;-75
2022/09/10 12:15:33;;;;;;;5.18;1.67;;;24.10;99.80;;;;;;5062785;28;19912;-74
2022/09/10 12:18:21;;;;;;;5.15;1.48;;;24.00;99.10;;;;;;5062429;28;20086;-75
2022/09/10 12:21:07;;;;;;;5.85;1.23;;;24.20;99.50;;;;;;5065352;28;20021;-75
2022/09/10 12:23:38;;;;;;;2.15;0.90;;;24.20;97.10;;;;;;5070264;28;20514;-75
2022/09/10 12:26:18;;;;;;;3.92;1.15;;;24.00;97.40;;;;;;5071322;28;20070;-75
2022/09/10 12:28:46;;;;;;;4.20;1.53;;;24.00;97.40;;;;;;5063493;28;20032;-76
2022/09/10 12:31:18;;;;;;;7.22;1.73;;;24.00;98.90;;;;;;5072320;28;20267;-76
2022/09/10 12:33:44;;;;;;;5.35;1.20;;;24.20;99.90;;;;;;5076732;28;20031;-74
2022/09/10 12:36:14;;;;;;;7.20;1.23;;;24.30;97.90;;;;;;5075622;28;20462;-74
2022/09/10 12:39:18;;;;;;;5.30;1.10;;;24.40;97.50;;;;;;5058526;28;20021;-75
2022/09/10 12:41:44;;;;;;;4.30;1.30;;;24.60;96.80;;;;;;5075150;28;20037;-76
2022/09/10 12:44:33;;;;;;;6.40;1.10;;;24.40;94.60;;;;;;5065796;28;20029;-76
2022/09/10 12:47:15;;;;;;;2.55;1.27;;;24.40;94.80;;;;;;5073635;28;20094;-76
2022/09/10 12:49:46;;;;;;;8.57;1.52;;;24.40;94.70;;;;;;5072272;28;20115;-76
2022/09/10 12:52:19;;;;;;;4.43;1.20;;;24.40;97.10;;;;;;5069992;28;20014;-75
2022/09/10 12:54:54;;;;;;;4.32;1.10;;;24.50;97.10;;;;;;5074718;28;20537;-75
2022/09/10 12:57:28;;;;;;;3.38;0.95;;;24.80;95.90;;;;;;5072636;28;20025;-76
2022/09/10 12:59:57;;;;;;;5.25;1.30;;;24.80;95.30;;;;;;5076616;28;20046;-75
2022/09/10 13:02:33;;;;;;;6.72;1.33;;;24.80;95.20;;;;;;5060521;28;20021;-75
2022/09/10 13:05:18;;;;;;;6.07;1.48;;;24.90;96.20;;;;;;5058850;28;20431;-75
2022/09/10 13:07:48;;;;;;;6.22;1.52;;;24.80;95.20;;;;;;5059624;28;20021;-75
2022/09/10 13:10:23;;;;;;;3.35;1.30;;;25.00;94.70;;;;;;5062663;28;20017;-75